Time;durP1;ratioP1;P1;durP2;ratioP2;P2;SDS_P1;SDS_P2;PMS_P1;PMS_P2;Temp;Humidity;BMP_temperature;BMP_pressure;BME280_temperature;BME280_humidity;BME280_pressure;Samples;Min_cycle;Max_cycle;Signal;HPM_P1;HPM_P2
2023/03/16 00:00:56;;;;;;;2.42;1.38;;;5.00;52.40;;;0.23;80.52;95741.72;4877046;29;20028;-50
2023/03/16 00:03:22;;;;;;;4.32;1.30;;;5.00;52.40;;;0.18;80.96;95734.44;4877835;29;20048;-50
2023/03/16 00:05:53;;;;;;;2.95;1.35;;;4.90;52.30;;;0.11;82.03;95744.06;4877996;29;20029;-53
2023/03/16 00:08:19;;;;;;;2.85;1.13;;;4.90;52.40;;;0.08;81.82;95743.66;4876850;29;20380;-52
2023/03/16 00:10:47;;;;;;;2.88;1.10;;;4.90;52.30;;;0.02;81.80;95732.16;4877750;29;20488;-51
2023/03/16 00:13:16;;;;;;;2.00;1.00;;;4.90;52.40;;;0.02;81.73;95733.97;4876792;29;20483;-50
2023/03/16 00:15:50;;;;;;;2.55;1.20;;;4.80;52.40;;;-0.03;81.87;95739.81;4871610;29;20107;-50
2023/03/16 00:18:17;;;;;;;1.67;1.20;;;4.80;52.40;;;-0.15;83.55;95746.59;4877736;29;20080;-52
2023/03/16 00:20:42;;;;;;;2.17;1.38;;;4.70;52.40;;;-0.21;83.24;95740.31;4869810;29;20027;-51
2023/03/16 00:23:08;;;;;;;1.85;1.00;;;4.70;52.50;;;-0.26;82.89;95735.63;4880455;29;20028;-50
2023/03/16 00:25:34;;;;;;;1.35;1.02;;;4.60;52.60;;;-0.21;82.49;95739.50;4882885;29;20075;-53
2023/03/16 00:28:03;;;;;;;1.73;1.08;;;4.60;52.70;;;-0.19;82.39;95733.03;4883869;29;20111;-50
2023/03/16 00:30:31;;;;;;;2.38;1.17;;;4.60;52.70;;;-0.16;82.75;95734.47;4883905;29;20020;-48
2023/03/16 00:32:58;;;;;;;1.17;0.73;;;4.60;52.80;;;-0.15;83.09;95734.28;4882950;29;20028;-49
2023/03/16 00:35:24;;;;;;;2.28;1.10;;;4.60;52.90;;;-0.18;83.18;95729.44;4883621;29;20024;-50
2023/03/16 00:37:50;;;;;;;1.85;0.80;;;4.60;52.90;;;-0.27;83.50;95734.03;4882992;29;20029;-51
2023/03/16 00:40:16;;;;;;;1.85;1.00;;;4.60;52.90;;;-0.33;82.98;95728.75;4883770;29;20029;-49
2023/03/16 00:42:42;;;;;;;2.28;1.10;;;4.60;52.90;;;-0.42;83.48;95728.09;4883324;29;20024;-50
2023/03/16 00:45:09;;;;;;;1.73;1.00;;;4.50;53.00;;;-0.52;84.28;95732.88;4882802;29;20035;-52
2023/03/16 00:47:35;;;;;;;2.10;1.08;;;4.40;53.00;;;-0.61;86.00;95729.59;4883607;29;20031;-50
2023/03/16 00:50:02;;;;;;;1.63;1.15;;;4.40;53.10;;;-0.69;86.67;95724.47;4882560;29;20032;-51
2023/03/16 00:52:28;;;;;;;1.95;1.13;;;4.30;53.10;;;-0.74;87.21;95725.06;4883440;29;20032;-52
2023/03/16 00:54:56;;;;;;;2.20;1.48;;;4.20;53.20;;;-0.74;87.52;95721.66;4883101;29;20123;-56
2023/03/16 00:57:26;;;;;;;1.48;1.00;;;4.20;53.40;;;-0.72;87.28;95720.47;4879231;29;20127;-53
2023/03/16 00:59:52;;;;;;;1.23;0.88;;;4.20;53.40;;;-0.73;87.51;95718.03;4883862;29;20513;-49
2023/03/16 01:02:22;;;;;;;2.00;1.00;;;4.20;53.50;;;-0.72;87.88;95717.03;4865758;29;20048;-49
2023/03/16 01:04:48;;;;;;;1.77;1.05;;;4.20;53.60;;;-0.71;87.13;95716.84;4883813;29;20103;-51
2023/03/16 01:07:14;;;;;;;2.22;1.17;;;4.10;53.60;;;-0.76;87.11;95718.41;4882477;29;20040;-50
2023/03/16 01:09:41;;;;;;;1.35;0.95;;;4.10;53.70;;;-0.83;87.35;95710.50;4883723;29;20072;-47
2023/03/16 01:12:16;;;;;;;1.15;0.85;;;4.10;53.70;;;-0.87;86.90;95709.28;4883304;29;20032;-49
2023/03/16 01:14:44;;;;;;;3.35;1.23;;;4.00;53.80;;;-0.93;86.94;95707.41;4881949;29;20020;-49
2023/03/16 01:17:13;;;;;;;1.85;1.13;;;4.00;53.80;;;-1.01;89.07;95704.94;4883075;29;20131;-48
2023/03/16 01:19:40;;;;;;;3.38;1.10;;;3.90;54.40;;;-1.07;88.41;95696.03;4882521;29;20504;-50
2023/03/16 01:22:08;;;;;;;1.80;1.20;;;3.90;53.90;;;-1.12;89.69;95702.84;4883236;29;20080;-51
2023/03/16 01:24:36;;;;;;;2.95;1.30;;;3.90;54.00;;;-1.19;90.39;95694.94;4866888;29;20028;-50
2023/03/16 01:27:04;;;;;;;3.33;1.10;;;3.80;54.00;;;-1.27;91.32;95693.25;4882152;29;20028;-49
2023/03/16 01:29:31;;;;;;;3.55;1.40;;;3.80;54.10;;;-1.28;91.11;95694.28;4883561;29;20032;-48
2023/03/16 01:31:58;;;;;;;1.80;1.20;;;3.70;54.20;;;-1.33;91.66;95699.22;4865542;29;20503;-48
2023/03/16 01:34:24;;;;;;;3.45;1.20;;;3.70;54.30;;;-1.38;92.92;95691.13;4882131;29;20028;-48
2023/03/16 01:36:51;;;;;;;4.13;1.17;;;3.70;54.40;;;-1.37;93.27;95689.34;4863687;29;20048;-47
2023/03/16 01:39:17;;;;;;;3.65;1.20;;;3.60;54.50;;;-1.41;93.76;95692.34;4880112;29;20048;-47
2023/03/16 01:41:45;;;;;;;4.07;1.40;;;3.60;54.60;;;-1.41;93.37;95687.13;4880370;29;20041;-49
2023/03/16 01:44:27;;;;;;;2.38;1.23;;;3.50;54.70;;;-1.50;93.78;95687.44;4878921;29;20030;-47
2023/03/16 01:46:52;;;;;;;2.47;1.20;;;3.50;54.90;;;-1.52;94.23;95687.59;4864390;29;20502;-48
2023/03/16 01:49:32;;;;;;;1.75;1.20;;;3.50;54.90;;;-1.56;94.24;95677.72;4879446;29;20028;-47
2023/03/16 01:52:21;;;;;;;3.42;1.45;;;3.40;55.00;;;-1.60;94.59;95676.47;4863840;29;20040;-47
2023/03/16 01:55:12;;;;;;;1.52;1.20;;;3.40;55.10;;;-1.64;95.31;95678.63;4868903;29;20028;-47
2023/03/16 01:57:45;;;;;;;1.52;1.10;;;3.30;55.20;;;-1.68;95.95;95667.75;4861335;29;20131;-44
2023/03/16 02:00:22;;;;;;;1.27;1.00;;;3.30;55.20;;;-1.69;96.16;95670.56;4863751;29;20515;-48
2023/03/16 02:02:59;;;;;;;3.75;1.30;;;3.30;55.30;;;-1.73;96.06;95672.72;4878834;29;20054;-45
2023/03/16 02:05:44;;;;;;;2.47;1.33;;;3.20;55.40;;;-1.76;96.45;95675.69;4863848;29;20028;-44
2023/03/16 02:08:11;;;;;;;3.20;1.63;;;3.20;55.50;;;-1.78;96.05;95671.69;4844140;29;20369;-46
2023/03/16 02:10:40;;;;;;;1.83;1.23;;;3.20;55.40;;;-1.81;95.67;95678.06;4863593;29;20055;-46
2023/03/16 02:13:06;;;;;;;4.15;1.45;;;3.20;55.60;;;-1.84;96.13;95670.59;4878894;29;20100;-50
2023/03/16 02:15:34;;;;;;;3.15;1.30;;;3.20;55.60;;;-1.89;96.76;95668.53;4879454;29;20369;-46
2023/03/16 02:18:01;;;;;;;2.35;1.30;;;3.10;55.60;;;-1.90;97.91;95673.97;4863259;29;20047;-45
2023/03/16 02:20:55;;;;;;;3.75;1.20;;;3.10;55.80;;;-1.91;98.08;95675.75;4878783;29;20031;-49
2023/03/16 02:23:24;;;;;;;3.42;1.10;;;3.10;56.00;;;-1.90;99.17;95664.31;4879515;29;20381;-46
2023/03/16 02:26:00;;;;;;;2.85;1.55;;;3.00;56.00;;;-1.81;99.11;95675.47;4878583;29;20052;-45
2023/03/16 02:29:16;;;;;;;3.58;1.20;;;3.00;56.20;;;-1.80;98.34;95674.47;4875274;29;20510;-48
2023/03/16 02:31:41;;;;;;;2.35;1.42;;;3.10;56.40;;;-1.81;98.58;95674.66;4875306;29;20099;-46
2023/03/16 02:34:12;;;;;;;6.82;1.83;;;3.10;56.20;;;-1.81;98.02;95674.66;4879314;29;20116;-47
2023/03/16 02:36:43;;;;;;;3.10;1.25;;;3.10;56.30;;;-1.86;98.26;95675.19;4863083;29;20476;-45
2023/03/16 02:39:09;;;;;;;1.88;1.40;;;3.10;56.30;;;-1.90;98.36;95672.16;4861606;29;20055;-46
2023/03/16 02:41:35;;;;;;;3.85;1.52;;;3.10;56.30;;;-1.94;98.76;95670.91;4879225;29;20048;-45
2023/03/16 02:44:18;;;;;;;1.95;1.60;;;3.00;56.30;;;-1.93;98.35;95672.53;4878114;29;20032;-44
2023/03/16 02:46:46;;;;;;;2.33;1.70;;;3.00;57.10;;;-1.95;97.76;95664.06;4877292;29;20064;-46
2023/03/16 02:49:42;;;;;;;3.55;1.60;;;3.00;56.40;;;-2.00;97.87;95663.81;4861254;29;20029;-44
2023/03/16 02:52:10;;;;;;;2.88;1.30;;;3.00;56.60;;;-1.99;98.18;95664.63;4877507;29;20036;-46
2023/03/16 02:54:37;;;;;;;2.47;1.13;;;3.00;56.50;;;-2.04;98.00;95665.16;4879005;29;20025;-44
2023/03/16 02:57:04;;;;;;;4.60;1.55;;;3.00;56.60;;;-2.08;98.85;95665.72;4876669;29;20119;-47
2023/03/16 02:59:30;;;;;;;3.33;1.70;;;3.00;56.70;;;-2.07;99.21;95664.72;4878928;29;20383;-49
2023/03/16 03:01:57;;;;;;;5.68;1.77;;;3.00;56.70;;;-2.09;99.46;95659.69;4877780;29;20076;-44
2023/03/16 03:04:23;;;;;;;3.50;1.65;;;3.00;56.80;;;-2.06;99.19;95664.53;4878972;29;20126;-45
2023/03/16 03:06:50;;;;;;;3.20;1.45;;;2.90;56.80;;;-1.99;98.94;95662.00;4878762;29;20448;-45
2023/03/16 03:09:18;;;;;;;4.60;1.95;;;3.00;57.50;;;-1.99;98.26;95668.03;4877598;29;20480;-44
2023/03/16 03:11:45;;;;;;;3.90;1.58;;;2.90;56.90;;;-1.94;98.32;95655.25;4878540;29;20593;-48
2023/03/16 03:14:11;;;;;;;3.97;1.90;;;3.00;57.00;;;-1.93;97.89;95656.06;4877570;29;20083;-44
2023/03/16 03:16:37;;;;;;;1.92;1.50;;;3.00;57.10;;;-1.92;97.02;95655.03;4878645;29;20045;-44
2023/03/16 03:19:03;;;;;;;3.63;1.70;;;3.00;57.00;;;-1.96;96.52;95657.22;4877407;29;20032;-46
2023/03/16 03:21:29;;;;;;;2.60;1.55;;;3.00;57.00;;;-2.02;96.56;95662.38;4878228;29;20484;-45
2023/03/16 03:23:55;;;;;;;3.28;1.92;;;2.90;57.00;;;-2.11;96.81;95662.47;4878323;29;20026;-44
2023/03/16 03:26:23;;;;;;;3.60;2.03;;;2.90;57.00;;;-2.13;96.23;95661.88;4877152;29;20036;-44
2023/03/16 03:28:49;;;;;;;3.53;1.85;;;2.90;56.90;;;-2.19;97.20;95667.81;4878335;29;20032;-44
2023/03/16 03:31:20;;;;;;;6.38;2.05;;;2.90;57.00;;;-2.23;97.07;95658.72;4877388;29;20625;-47
2023/03/16 03:33:47;;;;;;;3.33;2.10;;;2.90;57.10;;;-2.26;97.05;95653.84;4878378;29;20025;-44
2023/03/16 03:36:14;;;;;;;2.58;1.92;;;2.90;57.10;;;-2.28;97.44;95649.84;4878199;29;20028;-44
2023/03/16 03:38:40;;;;;;;7.65;2.35;;;2.80;57.10;;;-2.33;98.01;95645.16;4860385;29;20031;-45
2023/03/16 03:41:07;;;;;;;2.80;1.85;;;2.80;57.20;;;-2.34;98.36;95644.34;4878109;29;20384;-47
2023/03/16 03:43:34;;;;;;;4.15;1.83;;;2.80;57.30;;;-2.33;99.11;95648.56;4877179;29;20032;-44
2023/03/16 03:46:02;;;;;;;3.45;1.95;;;2.70;57.20;;;-2.32;99.49;95649.38;4878106;29;20039;-43
2023/03/16 03:48:29;;;;;;;3.15;2.03;;;2.80;57.30;;;-2.31;99.59;95647.59;4878312;29;20028;-46
2023/03/16 03:50:55;;;;;;;2.50;1.58;;;2.80;57.30;;;-2.31;99.35;95650.19;4876778;29;20111;-46
2023/03/16 03:53:21;;;;;;;3.28;2.00;;;2.70;57.30;;;-2.32;99.96;95649.38;4877521;29;20101;-44
2023/03/16 03:55:48;;;;;;;2.95;2.22;;;2.70;57.40;;;-2.29;99.91;95646.38;4876617;29;20145;-43
2023/03/16 03:58:14;;;;;;;2.47;1.90;;;2.70;57.50;;;-2.28;99.75;95642.00;4877037;29;20032;-48
2023/03/16 04:00:40;;;;;;;3.92;1.95;;;2.70;58.10;;;-2.29;100.00;95643.78;4854130;29;20050;-43
2023/03/16 04:03:06;;;;;;;6.28;2.50;;;2.70;57.50;;;-2.32;100.00;95646.75;4873328;29;20048;-45
2023/03/16 04:05:32;;;;;;;4.28;2.20;;;2.70;57.50;;;-2.38;100.00;95643.09;4877367;29;20055;-46
2023/03/16 04:07:58;;;;;;;2.88;2.08;;;2.70;57.50;;;-2.38;100.00;95640.50;4876200;29;20035;-46
2023/03/16 04:10:30;;;;;;;7.65;2.38;;;2.70;57.60;;;-2.40;100.00;95639.06;4860715;29;20059;-44
2023/03/16 04:12:58;;;;;;;2.70;2.05;;;2.60;58.20;;;-2.42;100.00;95631.38;4877088;29;20387;-52
2023/03/16 04:15:24;;;;;;;2.70;1.98;;;2.60;57.60;;;-2.42;100.00;95627.97;4877293;29;20043;-47
2023/03/16 04:17:53;;;;;;;3.63;2.28;;;2.60;57.70;;;-2.44;100.00;95636.00;4877276;29;20063;-46
2023/03/16 04:20:22;;;;;;;4.13;2.17;;;2.60;57.80;;;-2.47;100.00;95633.75;4872120;29;20035;-45
2023/03/16 04:22:48;;;;;;;4.00;2.30;;;2.60;57.90;;;-2.50;100.00;95636.72;4876574;29;20395;-44
2023/03/16 04:25:17;;;;;;;4.38;2.17;;;2.60;57.90;;;-2.52;100.00;95635.28;4859750;29;20047;-46
2023/03/16 04:27:43;;;;;;;3.67;2.58;;;2.50;57.90;;;-2.57;99.95;95628.81;4877161;29;20459;-44
2023/03/16 04:30:14;;;;;;;3.92;2.10;;;2.50;57.90;;;-2.60;99.72;95629.19;4877648;29;20032;-44
2023/03/16 04:32:40;;;;;;;3.35;2.30;;;2.50;57.90;;;-2.64;99.08;95630.50;4870290;29;20028;-46
2023/03/16 04:35:08;;;;;;;3.22;2.10;;;2.50;57.90;;;-2.70;99.72;95626.03;4876892;29;20044;-44
2023/03/16 04:37:34;;;;;;;7.20;2.63;;;2.50;57.90;;;-2.76;99.74;95624.13;4876593;29;20080;-46
2023/03/16 04:40:08;;;;;;;3.25;2.25;;;2.40;57.90;;;-2.78;99.98;95620.13;4877474;29;20428;-43
2023/03/16 04:42:34;;;;;;;4.53;2.53;;;2.40;58.00;;;-2.80;100.00;95620.28;4877141;29;20039;-45
2023/03/16 04:45:00;;;;;;;7.00;2.05;;;2.40;58.00;;;-2.82;100.00;95612.66;4876573;29;20079;-43
2023/03/16 04:47:26;;;;;;;3.53;2.20;;;2.30;58.10;;;-2.80;100.00;95617.66;4877096;29;20120;-44
2023/03/16 04:49:52;;;;;;;6.78;2.70;;;2.30;58.10;;;-2.84;100.00;95616.41;4876409;29;20107;-44
2023/03/16 04:52:19;;;;;;;3.15;2.22;;;2.30;58.10;;;-2.88;100.00;95626.41;4877360;29;20091;-43
2023/03/16 04:54:45;;;;;;;4.63;2.97;;;2.30;58.20;;;-2.92;100.00;95611.28;4877447;29;20039;-42
2023/03/16 04:57:11;;;;;;;4.25;2.67;;;2.20;58.20;;;-2.92;100.00;95614.69;4876252;29;20483;-44
2023/03/16 04:59:37;;;;;;;6.95;2.60;;;2.20;58.20;;;-2.90;100.00;95611.94;4877507;29;20028;-43
2023/03/16 05:02:03;;;;;;;3.75;2.35;;;2.20;58.30;;;-2.90;100.00;95609.31;4890170;23;20048;-52
2023/03/16 05:04:28;;;;;;;5.68;3.10;;;2.20;58.40;;;-2.89;100.00;95610.94;4893161;29;20085;-51
2023/03/16 05:06:54;;;;;;;4.53;3.08;;;2.20;58.40;;;-2.89;100.00;95609.13;4894468;29;20110;-52
2023/03/16 05:09:20;;;;;;;6.30;2.75;;;2.20;58.50;;;-2.86;100.00;95613.19;4896525;29;20020;-54
2023/03/16 05:11:46;;;;;;;3.92;2.92;;;2.20;58.60;;;-2.88;100.00;95610.75;4892397;29;20032;-49
2023/03/16 05:14:12;;;;;;;6.13;3.10;;;2.20;58.70;;;-2.89;100.00;95613.53;4879715;29;20026;-54
2023/03/16 05:16:38;;;;;;;5.93;2.90;;;2.20;58.80;;;-2.82;100.00;95604.00;4880095;29;20036;-51
2023/03/16 05:19:04;;;;;;;8.85;3.40;;;2.20;58.90;;;-2.76;100.00;95605.06;4879325;29;20036;-51
2023/03/16 05:21:30;;;;;;;5.75;2.67;;;2.20;58.90;;;-2.73;100.00;95615.94;4880437;29;20039;-56
2023/03/16 05:23:57;;;;;;;4.53;2.75;;;2.20;59.00;;;-2.73;100.00;95617.75;4880341;29;20028;-54
2023/03/16 05:26:24;;;;;;;3.97;2.80;;;2.20;59.00;;;-2.75;100.00;95614.53;4879079;29;20033;-50
2023/03/16 05:28:50;;;;;;;4.90;2.97;;;2.30;59.10;;;-2.76;100.00;95616.31;4880311;29;20096;-55
2023/03/16 05:31:18;;;;;;;3.97;2.90;;;2.20;59.00;;;-2.78;100.00;95615.69;4878953;29;20086;-53
2023/03/16 05:33:43;;;;;;;4.07;2.90;;;2.20;59.00;;;-2.80;100.00;95612.47;4880397;29;20796;-50
2023/03/16 05:36:11;;;;;;;6.00;2.72;;;2.20;59.00;;;-2.82;100.00;95607.44;4880099;29;20028;-49
2023/03/16 05:38:38;;;;;;;6.60;3.72;;;2.30;59.00;;;-2.80;100.00;95600.22;4878995;29;20031;-51
2023/03/16 05:41:04;;;;;;;4.80;3.13;;;2.30;59.20;;;-2.70;100.00;95606.97;4879961;29;20068;-51
2023/03/16 05:43:30;;;;;;;6.32;3.25;;;2.30;59.20;;;-2.65;100.00;95602.81;4879157;29;20118;-49
2023/03/16 05:45:57;;;;;;;7.07;3.13;;;2.30;59.30;;;-2.63;100.00;95600.06;4879622;29;20127;-50
2023/03/16 05:48:24;;;;;;;6.00;3.15;;;2.30;59.30;;;-2.66;100.00;95603.81;4879960;29;20039;-53
2023/03/16 05:50:51;;;;;;;7.38;3.20;;;2.40;59.30;;;-2.68;100.00;95600.59;4879170;29;20036;-54
2023/03/16 05:53:18;;;;;;;7.90;3.47;;;2.40;59.20;;;-2.70;100.00;95593.91;4879910;29;20407;-50
2023/03/16 05:55:44;;;;;;;7.38;3.38;;;2.40;59.20;;;-2.63;100.00;95593.03;4878979;29;20035;-52
2023/03/16 05:58:10;;;;;;;4.78;3.25;;;2.40;59.30;;;-2.57;100.00;95588.88;4879671;29;20028;-52
2023/03/16 06:00:38;;;;;;;6.00;3.20;;;2.50;59.40;;;-2.49;100.00;95593.19;4879383;29;20028;-51
2023/03/16 06:03:05;;;;;;;6.40;3.38;;;2.50;59.40;;;-2.44;100.00;95591.66;4878072;29;20393;-56
2023/03/16 06:05:32;;;;;;;5.82;3.13;;;2.60;59.50;;;-2.38;100.00;95584.91;4876377;29;20087;-53
2023/03/16 06:07:58;;;;;;;4.30;3.22;;;2.60;59.50;;;-2.31;100.00;95598.81;4878539;29;20052;-51
2023/03/16 06:10:25;;;;;;;4.18;3.22;;;2.80;59.60;;;-2.25;100.00;95589.44;4879391;29;20071;-51
2023/03/16 06:12:51;;;;;;;5.32;3.30;;;2.80;59.60;;;-2.18;100.00;95596.34;4878821;29;20115;-53
2023/03/16 06:15:18;;;;;;;5.85;3.15;;;2.90;59.60;;;-2.10;100.00;95596.25;4878173;29;20515;-53
2023/03/16 06:17:44;;;;;;;7.68;3.10;;;2.90;59.60;;;-2.04;100.00;95597.28;4879593;29;20095;-57
2023/03/16 06:20:12;;;;;;;6.35;3.20;;;3.00;59.60;;;-1.96;100.00;95605.00;4877836;29;20483;-53
2023/03/16 06:22:41;;;;;;;6.32;3.10;;;3.10;59.60;;;-1.88;100.00;95606.66;4878876;29;20035;-54
2023/03/16 06:25:11;;;;;;;3.97;2.90;;;3.20;59.70;;;-1.79;100.00;95610.78;4854691;29;20036;-51
2023/03/16 06:27:38;;;;;;;7.72;2.72;;;3.30;59.70;;;-1.69;100.00;95618.34;4878709;29;20040;-57
2023/03/16 06:30:07;;;;;;;10.18;3.33;;;3.40;59.60;;;-1.61;100.00;95615.56;4879231;29;20029;-54
2023/03/16 06:32:36;;;;;;;4.85;2.72;;;3.50;59.70;;;-1.50;100.00;95624.72;4879050;29;20035;-54
2023/03/16 06:35:04;;;;;;;6.55;2.70;;;3.60;59.60;;;-1.41;100.00;95626.19;4877657;29;20481;-50
2023/03/16 06:37:30;;;;;;;4.18;2.50;;;3.70;59.60;;;-1.35;100.00;95620.19;4878419;29;20072;-54
2023/03/16 06:39:56;;;;;;;5.85;2.58;;;3.80;59.60;;;-1.26;100.00;95626.09;4877862;29;20036;-52
2023/03/16 06:42:22;;;;;;;3.83;2.70;;;3.90;59.50;;;-1.14;99.60;95629.81;4878816;29;20059;-53
2023/03/16 06:44:48;;;;;;;5.13;2.85;;;4.00;59.50;;;-1.01;98.31;95616.03;4877931;29;20025;-57
2023/03/16 06:47:14;;;;;;;5.50;2.72;;;4.10;59.40;;;-0.94;97.75;95616.88;4878879;29;20508;-50
2023/03/16 06:49:40;;;;;;;5.28;2.80;;;4.20;59.30;;;-0.90;97.54;95617.31;4877474;29;20029;-55
2023/03/16 06:52:07;;;;;;;5.68;2.90;;;4.30;59.30;;;-0.79;97.51;95627.22;4861760;29;20125;-57
2023/03/16 06:54:34;;;;;;;7.15;3.00;;;4.40;59.20;;;-0.66;97.62;95629.91;4878252;29;20032;-51
2023/03/16 06:57:00;;;;;;;4.72;2.92;;;4.50;59.20;;;-0.53;97.24;95630.00;4877324;29;20040;-57
2023/03/16 06:59:26;;;;;;;5.03;3.00;;;4.70;59.10;;;-0.40;96.25;95641.53;4862485;29;20092;-57
2023/03/16 07:01:52;;;;;;;5.15;3.05;;;4.90;59.00;;;-0.21;95.78;95642.63;4877537;29;20020;-55
2023/03/16 07:04:18;;;;;;;5.55;3.25;;;5.10;59.00;;;-0.08;95.19;95650.53;4875887;29;20136;-54
2023/03/16 07:06:44;;;;;;;5.32;3.10;;;5.30;58.80;;;0.06;95.04;95643.50;4892252;29;20046;-56
2023/03/16 07:09:11;;;;;;;5.60;3.70;;;5.50;58.80;;;0.22;94.13;95646.59;4875609;29;20107;-52
2023/03/16 07:11:38;;;;;;;4.45;2.92;;;5.60;58.60;;;0.39;93.63;95644.41;4878123;29;20131;-58
2023/03/16 07:14:04;;;;;;;8.05;3.30;;;5.80;58.40;;;0.63;92.79;95648.28;4876792;29;20024;-56
2023/03/16 07:16:30;;;;;;;4.07;3.03;;;6.10;58.30;;;0.96;91.63;95650.09;4878480;29;20032;-56
2023/03/16 07:18:57;;;;;;;5.40;3.13;;;6.50;58.20;;;1.21;89.32;95649.47;4891185;29;20028;-53
2023/03/16 07:21:23;;;;;;;4.35;3.05;;;6.90;57.80;;;1.48;87.48;95651.03;4877463;29;20035;-51
2023/03/16 07:23:50;;;;;;;3.67;2.80;;;7.20;57.50;;;1.72;86.40;95649.53;4876626;29;20061;-53
2023/03/16 07:26:17;;;;;;;3.47;2.28;;;7.60;57.20;;;2.01;83.36;95656.09;4877041;29;20028;-53
2023/03/16 07:28:43;;;;;;;3.90;2.42;;;7.90;56.80;;;2.33;81.49;95664.03;4878129;29;20021;-53
2023/03/16 07:31:09;;;;;;;6.03;2.90;;;8.30;56.40;;;2.73;80.85;95658.53;4877197;29;20121;-57
2023/03/16 07:33:36;;;;;;;4.70;1.95;;;8.70;56.10;;;3.08;76.95;95661.50;4877821;29;20046;-57
2023/03/16 07:36:05;;;;;;;3.40;1.67;;;9.00;55.70;;;3.45;72.91;95664.22;4892371;29;20028;-56
2023/03/16 07:38:32;;;;;;;1.20;1.10;;;9.40;55.20;;;3.85;68.89;95667.22;4875224;29;20495;-57
2023/03/16 07:41:01;;;;;;;2.35;1.60;;;9.80;54.60;;;4.16;67.35;95671.53;4877997;29;20412;-57
2023/03/16 07:43:28;;;;;;;5.88;1.63;;;10.20;54.10;;;4.38;66.03;95668.41;4877060;29;20029;-56
2023/03/16 07:45:54;;;;;;;1.60;1.50;;;10.60;53.70;;;4.66;65.46;95664.38;4878187;29;20048;-55
2023/03/16 07:48:21;;;;;;;3.10;1.60;;;11.00;53.20;;;4.96;63.83;95662.53;4877880;29;20032;-57
2023/03/16 07:50:49;;;;;;;1.95;1.58;;;11.30;52.70;;;5.27;62.76;95658.75;4877108;29;20032;-52
2023/03/16 07:53:15;;;;;;;4.07;1.58;;;11.70;52.20;;;5.57;61.36;95663.13;4877779;29;20559;-57
2023/03/16 07:55:43;;;;;;;1.73;1.23;;;12.10;51.70;;;5.78;58.97;95667.81;4877020;29;20020;-55
2023/03/16 07:58:10;;;;;;;2.40;1.75;;;12.50;51.70;;;6.01;58.31;95660.91;4876709;29;20039;-57
2023/03/16 08:00:37;;;;;;;2.35;1.55;;;12.80;50.50;;;6.26;58.49;95669.34;4877659;29;20031;-56
2023/03/16 08:03:04;;;;;;;2.35;1.52;;;13.10;50.00;;;6.47;57.98;95672.41;4876173;29;20079;-56
2023/03/16 08:05:31;;;;;;;2.95;1.40;;;13.50;49.40;;;6.60;55.92;95661.50;4877465;29;20044;-56
2023/03/16 08:07:58;;;;;;;3.40;1.70;;;13.80;48.80;;;6.95;56.96;95658.69;4876040;29;20036;-57
2023/03/16 08:10:25;;;;;;;2.45;1.90;;;14.10;48.20;;;7.18;57.21;95649.78;4876615;29;20098;-53
2023/03/16 08:12:51;;;;;;;2.70;2.10;;;14.40;47.70;;;7.65;56.75;95640.69;4867117;29;20111;-51
2023/03/16 08:15:18;;;;;;;2.65;1.88;;;14.70;47.20;;;7.50;54.72;95637.81;4876268;29;20029;-52
2023/03/16 08:17:44;;;;;;;2.88;1.73;;;15.00;46.60;;;7.75;54.73;95637.34;4877371;29;20032;-55
2023/03/16 08:20:13;;;;;;;2.10;1.90;;;15.20;46.00;;;7.36;54.00;95637.31;4876081;29;20043;-55
2023/03/16 08:22:44;;;;;;;3.92;2.10;;;15.30;45.40;;;7.50;54.81;95643.13;4872935;29;20040;-56
2023/03/16 08:25:11;;;;;;;3.10;1.67;;;15.40;45.00;;;7.84;53.78;95642.00;4855262;29;20040;-56
2023/03/16 08:27:37;;;;;;;3.75;1.80;;;15.50;44.60;;;8.18;52.32;95639.22;4875604;29;20503;-55
2023/03/16 08:30:11;;;;;;;2.58;1.90;;;15.50;44.40;;;8.54;52.18;95637.78;4877550;29;20472;-53
2023/03/16 08:32:39;;;;;;;2.38;2.13;;;15.70;44.10;;;8.62;51.33;95633.06;4876319;29;20044;-55
2023/03/16 08:35:14;;;;;;;2.80;2.30;;;15.90;44.00;;;8.82;51.96;95627.97;4877661;29;20056;-55
2023/03/16 08:37:42;;;;;;;4.55;2.08;;;16.10;44.10;;;9.11;51.43;95617.84;4876820;29;20024;-56
2023/03/16 08:40:12;;;;;;;2.40;2.10;;;16.30;43.30;;;9.44;50.00;95614.09;4877585;29;20032;-50
2023/03/16 08:42:40;;;;;;;2.85;1.90;;;16.50;42.90;;;9.19;49.29;95612.06;4877559;29;20115;-55
2023/03/16 08:45:08;;;;;;;2.50;1.98;;;16.70;42.50;;;9.26;50.37;95594.03;4879004;29;20464;-56
2023/03/16 08:47:36;;;;;;;2.38;2.05;;;16.80;42.00;;;9.14;47.07;95595.28;4881349;29;20044;-56
2023/03/16 08:50:05;;;;;;;4.28;1.55;;;16.80;41.40;;;8.84;48.51;95598.47;4880519;29;20036;-52
2023/03/16 08:52:35;;;;;;;2.45;1.63;;;16.70;41.00;;;8.40;48.28;95599.44;4867125;29;20044;-53
2023/03/16 08:55:04;;;;;;;3.20;1.60;;;16.60;40.60;;;8.70;47.63;95604.22;4881270;29;20025;-56
2023/03/16 08:57:32;;;;;;;3.00;1.63;;;16.60;40.30;;;9.01;47.60;95613.25;4880716;29;20024;-51
2023/03/16 08:59:59;;;;;;;2.78;1.50;;;16.60;40.10;;;9.04;48.71;95618.06;4880926;29;20137;-56
2023/03/16 09:02:25;;;;;;;1.83;1.48;;;16.60;40.10;;;9.52;46.13;95606.69;4879826;29;20380;-55
2023/03/16 09:04:51;;;;;;;3.78;1.50;;;16.80;40.00;;;8.50;46.22;95612.81;4880921;29;20036;-56
2023/03/16 09:07:18;;;;;;;3.80;1.70;;;16.90;39.40;;;8.87;46.56;95609.44;4879882;29;20128;-55
2023/03/16 09:09:45;;;;;;;3.15;1.50;;;17.00;39.20;;;9.04;45.26;95603.97;4880828;29;20107;-54
2023/03/16 09:12:12;;;;;;;1.30;1.20;;;17.20;38.80;;;9.40;44.53;95613.03;4880583;29;20368;-57
2023/03/16 09:14:39;;;;;;;1.95;1.42;;;17.30;38.40;;;10.00;44.58;95620.78;4879688;29;20025;-49
2023/03/16 09:17:06;;;;;;;2.00;1.30;;;17.50;38.30;;;10.28;44.14;95616.91;4880776;29;20484;-51
2023/03/16 09:19:33;;;;;;;1.88;1.45;;;17.70;38.00;;;10.61;43.18;95608.50;4879737;29;20029;-52
2023/03/16 09:21:59;;;;;;;2.67;1.38;;;17.90;37.80;;;10.79;43.04;95607.19;4880645;29;20120;-56
2023/03/16 09:24:25;;;;;;;1.60;1.20;;;18.00;37.40;;;11.07;39.82;95605.88;4880609;29;20099;-53
2023/03/16 09:26:51;;;;;;;2.30;1.30;;;18.20;36.90;;;11.17;40.55;95613.06;4879281;29;20592;-51
2023/03/16 09:29:17;;;;;;;1.88;1.30;;;18.30;36.60;;;11.33;38.74;95620.00;4881007;29;20021;-56
2023/03/16 09:31:45;;;;;;;3.08;1.50;;;18.50;36.20;;;11.32;40.78;95617.59;4879437;29;20028;-55
2023/03/16 09:34:11;;;;;;;2.13;1.48;;;18.70;35.80;;;11.27;39.02;95612.25;4880446;29;20036;-54
2023/03/16 09:36:37;;;;;;;1.73;1.38;;;18.90;35.30;;;11.45;39.31;95614.38;4880203;29;20036;-57
2023/03/16 09:39:03;;;;;;;2.15;1.42;;;19.00;35.00;;;11.78;38.63;95599.66;4879032;29;20119;-56
2023/03/16 09:41:47;;;;;;;1.98;1.50;;;19.20;34.60;;;12.04;39.67;95591.59;4880173;29;20032;-53
2023/03/16 09:45:01;;;;;;;3.17;1.75;;;19.50;34.60;;;12.47;38.22;95586.56;4863236;29;20029;-57
2023/03/16 09:47:35;;;;;;;1.50;1.40;;;19.80;34.40;;;12.68;38.17;95592.59;4868346;29;20416;-52
2023/03/16 09:50:27;;;;;;;1.55;1.30;;;20.00;34.10;;;12.63;38.33;95597.94;4865180;29;20033;-55
2023/03/16 09:53:35;;;;;;;2.67;1.40;;;20.10;33.60;;;13.05;37.76;95580.56;4878889;29;20036;-56
2023/03/16 09:56:14;;;;;;;1.95;1.50;;;20.20;33.50;;;13.10;37.11;95580.50;4877934;29;20292;-50
2023/03/16 09:58:40;;;;;;;1.75;1.40;;;20.50;33.20;;;12.58;37.88;95582.75;4880212;29;20037;-51
2023/03/16 10:01:55;;;;;;;1.70;1.60;;;20.60;32.90;;;12.23;38.04;95591.78;4878950;29;20035;-50
2023/03/16 10:04:24;;;;;;;1.80;1.30;;;20.60;32.30;;;12.65;38.61;95579.78;4879836;29;20045;-55
2023/03/16 10:07:37;;;;;;;1.30;1.20;;;20.80;32.30;;;12.91;35.11;95588.41;4879718;29;20036;-55
2023/03/16 10:10:52;;;;;;;1.60;1.45;;;20.90;32.00;;;13.35;37.38;95587.53;4873901;29;20028;-55
2023/03/16 10:14:01;;;;;;;2.90;1.50;;;21.20;31.90;;;13.51;37.47;95583.66;4868007;29;20028;-57
2023/03/16 10:16:45;;;;;;;2.95;1.50;;;21.50;31.50;;;13.93;37.24;95582.16;4878046;29;20056;-51
2023/03/16 10:19:37;;;;;;;2.67;2.00;;;21.70;31.30;;;13.93;35.93;95571.44;4878832;29;20052;-52
2023/03/16 10:22:25;;;;;;;1.90;1.60;;;21.90;30.60;;;14.10;35.21;95563.75;4861876;29;20029;-57
2023/03/16 10:25:22;;;;;;;3.08;2.00;;;22.00;30.40;;;14.23;34.84;95562.25;4877219;29;20119;-57
2023/03/16 10:27:49;;;;;;;1.83;1.70;;;22.10;30.10;;;14.27;36.49;95557.09;4878529;29;20092;-56
2023/03/16 10:30:34;;;;;;;2.35;1.90;;;22.30;30.20;;;14.44;35.79;95565.41;4879403;29;20555;-55
2023/03/16 10:33:19;;;;;;;2.42;1.80;;;22.60;29.90;;;14.64;36.23;95564.38;4878533;29;20398;-57
2023/03/16 10:36:28;;;;;;;3.88;1.83;;;22.70;29.60;;;14.73;34.54;95551.13;4870839;29;20368;-54